Time;durP1;ratioP1;P1;durP2;ratioP2;P2;SDS_P1;SDS_P2;PMS_P1;PMS_P2;Temp;Humidity;BMP_temperature;BMP_pressure;BME280_temperature;BME280_humidity;BME280_pressure;Samples;Min_cycle;Max_cycle;Signal;HPM_P1;HPM_P2
2022/05/24 00:00:52;;;;;;;17.50;8.37;;;;;;;13.35;97.99;98743.00;5116852;28;20126;-77
2022/05/24 00:03:19;;;;;;;;;;;;;;;13.26;98.41;98740.00;5117436;28;20374;-75
2022/05/24 00:05:45;;;;;;;15.85;8.05;;;;;;;13.23;98.58;98737.03;5116742;28;19907;-76
2022/05/24 00:08:10;;;;;;;17.48;8.07;;;;;;;13.33;98.46;98735.16;5117645;28;20139;-76
2022/05/24 00:10:36;;;;;;;17.77;8.63;;;;;;;13.38;98.80;98737.91;5116501;28;20437;-77
2022/05/24 00:13:02;;;;;;;;;;;;;;;13.42;97.47;98740.91;5099345;28;20089;-77
2022/05/24 00:15:30;;;;;;;16.73;8.95;;;;;;;13.39;97.76;98730.59;5116410;28;20577;-77
2022/05/24 00:18:27;;;;;;;18.38;8.25;;;;;;;13.37;97.93;98741.69;5116948;28;20027;-77
2022/05/24 00:20:55;;;;;;;17.33;8.10;;;;;;;13.41;97.42;98739.25;5098109;28;20054;-76
2022/05/24 00:23:23;;;;;;;17.67;7.38;;;;;;;13.39;97.76;98739.53;5116468;28;20034;-76
2022/05/24 00:25:56;;;;;;;19.98;8.00;;;;;;;13.38;98.26;98737.91;5116086;28;20039;-76
2022/05/24 00:28:25;;;;;;;13.82;7.65;;;;;;;13.45;98.03;98734.94;5098166;28;20028;-76
2022/05/24 00:30:51;;;;;;;14.38;7.07;;;;;;;13.44;97.48;98734.13;5116540;28;20024;-76
2022/05/24 00:33:17;;;;;;;;;;;;;;;13.40;97.87;98733.03;5098328;28;20062;-76
2022/05/24 00:35:43;;;;;;;15.23;6.93;;;;;;;13.44;98.51;98731.41;5115160;28;20010;-76
2022/05/24 00:38:11;;;;;;;16.00;7.30;;;;;;;13.41;98.02;98742.78;5115942;28;20055;-77
2022/05/24 00:40:47;;;;;;;17.35;7.45;;;;;;;13.45;97.61;98738.44;5116385;28;20572;-76
2022/05/24 00:43:27;;;;;;;15.32;7.00;;;;;;;13.38;97.88;98732.50;5116149;28;20035;-76
2022/05/24 00:45:57;;;;;;;15.65;7.80;;;;;;;13.45;97.75;98733.03;5097768;28;20498;-77
2022/05/24 00:48:28;;;;;;;13.23;7.57;;;;;;;13.44;97.60;98730.59;5097945;28;20028;-77
2022/05/24 00:50:53;;;;;;;18.88;7.38;;;;;;;13.36;97.63;98731.13;5115902;28;20123;-76
2022/05/24 00:53:34;;;;;;;12.68;6.57;;;;;;;13.32;98.73;98727.31;5115465;28;20441;-77
2022/05/24 00:56:41;;;;;;;16.75;8.13;;;;;;;13.31;98.31;98725.69;5115582;28;20036;-77
2022/05/24 00:59:08;;;;;;;16.27;6.80;;;;;;;13.27;98.93;98732.69;5114684;28;20047;-77
2022/05/24 01:01:41;;;;;;;13.82;6.38;;;;;;;13.22;99.12;98721.88;5115461;28;20035;-76
2022/05/24 01:04:09;;;;;;;17.98;7.57;;;;;;;13.16;99.57;98718.31;5115651;28;20038;-76
2022/05/24 01:06:35;;;;;;;13.82;6.80;;;;;;;13.22;100.00;98719.97;5115534;28;20023;-77
2022/05/24 01:09:06;;;;;;;14.32;6.68;;;;;;;13.20;99.63;98724.84;5115259;28;20036;-76
2022/05/24 01:11:34;;;;;;;14.20;6.20;;;;;;;13.18;100.00;98721.56;5115096;28;20478;-77
2022/05/24 01:14:00;;;;;;;11.80;5.80;;;;;;;13.21;100.00;98721.06;5115218;28;20030;-76
2022/05/24 01:16:26;;;;;;;13.18;6.18;;;;;;;13.22;99.95;98721.88;5115054;28;20394;-76
2022/05/24 01:18:51;;;;;;;13.10;6.50;;;;;;;13.22;99.63;98716.47;5097209;28;20055;-77
2022/05/24 01:21:17;;;;;;;14.97;6.77;;;;;;;13.22;99.34;98719.16;5115450;28;20352;-77
2022/05/24 01:23:52;;;;;;;12.10;6.65;;;;;;;13.21;99.60;98715.63;5115546;28;20253;-76
2022/05/24 01:26:32;;;;;;;15.15;6.95;;;;;;;13.20;99.40;98717.53;5115560;28;20031;-76
2022/05/24 01:29:00;;;;;;;13.98;6.00;;;;;;;13.19;100.00;98701.56;5096723;28;20034;-76
2022/05/24 01:36:09;;;;;;;18.50;7.65;;;;;;;13.20;99.97;98703.19;5115119;28;20023;-76
2022/05/24 01:37:02;;;;;;;18.17;7.68;;;;;;;13.28;99.59;98718.09;5115288;28;20062;-76
2022/05/24 01:39:27;;;;;;;16.00;7.90;;;;;;;13.26;99.84;98718.34;5114994;28;20364;-77
2022/05/24 01:41:53;;;;;;;;;;;;;;;13.29;99.22;98717.81;5115788;28;20042;-76
2022/05/24 01:44:25;;;;;;;16.17;8.05;;;;;;;13.32;99.05;98724.59;5114751;28;19913;-76
2022/05/24 01:46:50;;;;;;;18.35;8.23;;;;;;;13.27;99.04;98722.69;5114725;28;20078;-76
2022/05/24 01:49:22;;;;;;;19.67;7.70;;;;;;;13.28;99.72;98720.78;5115133;28;20035;-76
2022/05/24 01:52:08;;;;;;;18.02;8.73;;;;;;;13.31;99.43;98712.97;5098141;28;20063;-77
2022/05/24 01:54:39;;;;;;;17.52;7.57;;;;;;;13.30;99.29;98710.53;5114669;28;20043;-76
2022/05/24 01:57:10;;;;;;;16.35;8.20;;;;;;;13.24;99.75;98704.31;5116142;28;20108;-76
2022/05/24 01:59:39;;;;;;;17.00;7.90;;;;;;;13.27;99.50;98708.34;5116739;28;20027;-76
2022/05/24 02:02:04;;;;;;;19.38;8.65;;;;;;;13.27;99.42;98711.06;5116718;28;20027;-76
2022/05/24 02:04:32;;;;;;;19.27;7.80;;;;;;;13.32;98.62;98705.66;5115042;28;20107;-76
2022/05/24 02:07:04;;;;;;;18.42;8.15;;;;;;;13.30;98.88;98708.63;5114599;28;20035;-76
2022/05/24 02:09:30;;;;;;;16.25;7.95;;;;;;;13.26;99.00;98706.72;5114317;28;20027;-76
2022/05/24 02:12:00;;;;;;;16.67;7.72;;;;;;;13.31;98.94;98712.16;5114054;28;20028;-76
2022/05/24 02:14:31;;;;;;;18.40;8.15;;;;;;;13.33;99.09;98710.81;5114047;28;20038;-76
2022/05/24 02:17:24;;;;;;;16.10;7.65;;;;;;;13.33;99.17;98705.41;5113771;28;20027;-76
2022/05/24 02:19:56;;;;;;;15.25;7.57;;;;;;;13.32;99.00;98703.78;5109554;28;20397;-76
2022/05/24 02:22:26;;;;;;;19.20;8.32;;;;;;;13.30;98.88;98705.13;5114205;28;20037;-76
2022/05/24 02:25:09;;;;;;;16.70;8.43;;;;;;;13.29;98.58;98708.91;5114198;28;20036;-76
2022/05/24 02:27:44;;;;;;;18.73;7.55;;;;;;;13.36;98.25;98701.38;5114033;28;20165;-77
2022/05/24 02:30:12;;;;;;;15.65;7.80;;;;;;;13.41;97.48;98714.91;5114519;28;20027;-76
2022/05/24 02:32:37;;;;;;;17.05;8.55;;;;;;;13.38;98.06;98710.84;5113909;28;20028;-76
2022/05/24 02:35:02;;;;;;;14.87;7.90;;;;;;;13.42;97.75;98727.38;5114138;28;20502;-76
2022/05/24 02:37:28;;;;;;;14.82;6.93;;;;;;;13.33;97.63;98712.72;5114096;28;20091;-77
2022/05/24 02:42:37;;;;;;;13.77;6.80;;;;;;;13.33;96.99;98713.53;5114378;28;20258;-76
2022/05/24 02:45:03;;;;;;;17.05;7.05;;;;;;;13.30;96.83;98719.44;5113984;28;20799;-76
2022/05/24 02:47:29;;;;;;;14.65;7.10;;;;;;;13.26;96.58;98715.63;5095729;28;20066;-76
2022/05/24 02:49:54;;;;;;;14.50;6.97;;;;;;;13.23;96.75;98720.78;5113426;28;20028;-76
2022/05/24 02:52:19;;;;;;;14.75;6.95;;;;;;;13.24;96.56;98723.22;5113586;28;20501;-76
2022/05/24 02:54:44;;;;;;;;;;;;;;;13.22;96.06;98725.38;5114067;28;20353;-76
2022/05/24 02:57:10;;;;;;;16.52;6.80;;;;;;;13.21;96.12;98723.75;5113286;28;19999;-76
2022/05/24 02:59:35;;;;;;;11.53;6.23;;;;;;;13.15;94.99;98732.91;5095392;28;20032;-76
2022/05/24 03:02:04;;;;;;;12.38;5.63;;;;;;;13.07;93.93;98734.22;5114319;28;20312;-76
2022/05/24 03:04:30;;;;;;;10.68;5.15;;;;;;;12.99;93.14;98723.06;5113704;28;20126;-77
2022/05/24 03:09:39;;;;;;;9.63;3.55;;;;;;;12.85;92.96;98728.94;5113374;28;20081;-76
2022/05/24 03:14:53;;;;;;;8.65;4.03;;;;;;;12.64;93.16;98716.34;5113015;28;20084;-76
2022/05/24 03:17:18;;;;;;;6.40;3.45;;;;;;;12.65;92.59;98718.00;5095289;28;20114;-77
2022/05/24 03:19:44;;;;;;;9.55;3.55;;;;;;;12.60;93.34;98717.94;5113095;28;20059;-77
2022/05/24 03:22:10;;;;;;;8.18;3.35;;;;;;;12.58;93.13;98716.56;5113362;28;20084;-77
2022/05/24 03:24:36;;;;;;;10.23;4.00;;;;;;;12.60;92.14;98720.66;5113061;28;20027;-76
2022/05/24 03:27:07;;;;;;;7.55;3.63;;;;;;;12.55;92.47;98730.59;5113443;28;20341;-76
2022/05/24 03:29:33;;;;;;;7.13;3.20;;;;;;;12.51;92.45;98722.22;5114232;28;20027;-77
2022/05/24 03:31:58;;;;;;;7.18;3.08;;;;;;;12.46;91.92;98720.28;5113464;28;20036;-78
2022/05/24 03:34:24;;;;;;;8.18;3.40;;;;;;;12.36;92.29;98728.28;5114803;28;20405;-78
2022/05/24 03:36:49;;;;;;;;;;;;;;;12.42;91.33;98723.75;5116833;28;20035;-77
2022/05/24 03:39:14;;;;;;;11.13;3.30;;;;;;;12.31;91.59;98732.84;5114769;28;19912;-78
2022/05/24 03:41:43;;;;;;;;;;;;;;;12.27;91.32;98726.31;5114483;28;20381;-77
2022/05/24 03:44:09;;;;;;;5.82;2.38;;;;;;;12.29;91.16;98726.88;5114251;28;19957;-77
2022/05/24 03:46:35;;;;;;;9.82;3.08;;;;;;;12.21;91.86;98738.97;5114325;28;20039;-77
2022/05/24 03:49:00;;;;;;;5.20;2.70;;;;;;;12.23;91.75;98746.81;5114968;28;20042;-77
2022/05/24 03:51:25;;;;;;;6.33;2.90;;;;;;;12.25;91.57;98739.25;5115182;28;20034;-77
2022/05/24 03:53:50;;;;;;;7.78;2.92;;;;;;;12.21;91.47;98749.75;5114801;28;20406;-77
2022/05/24 03:56:16;;;;;;;6.30;2.97;;;;;;;12.22;91.15;98746.00;5114825;28;20097;-77
2022/05/24 03:58:41;;;;;;;6.53;3.03;;;;;;;12.22;90.93;98751.38;5113630;28;20265;-76
2022/05/24 04:01:06;;;;;;;6.10;2.73;;;;;;;12.27;90.55;98751.44;5113523;28;20262;-77
2022/05/24 04:03:32;;;;;;;6.43;2.60;;;;;;;12.25;90.96;98769.78;5114426;28;20261;-78
2022/05/24 04:05:58;;;;;;;6.47;3.00;;;;;;;12.27;90.69;98758.72;5113880;28;20253;-78
2022/05/24 04:08:27;;;;;;;6.82;2.72;;;;;;;12.34;89.74;98749.34;5114627;28;20378;-77
2022/05/24 04:11:10;;;;;;;6.35;3.13;;;;;;;12.31;89.59;98759.84;5115262;28;20031;-77
2022/05/24 04:13:37;;;;;;;8.50;3.70;;;;;;;12.33;89.22;98763.13;5118766;28;20062;-76
2022/05/24 04:16:04;;;;;;;7.20;2.78;;;;;;;12.34;89.26;98770.97;5117866;28;20044;-77
2022/05/24 04:18:29;;;;;;;8.15;2.28;;;;;;;12.29;88.96;98762.81;5117747;28;20027;-78
2022/05/24 04:20:55;;;;;;;6.97;2.70;;;;;;;12.29;89.32;98760.09;5117712;28;20106;-78
2022/05/24 04:23:21;;;;;;;14.23;3.72;;;;;;;12.45;88.15;98778.06;5118607;28;20039;-77
2022/05/24 04:25:48;;;;;;;5.93;2.83;;;;;;;12.40;88.26;98778.03;5117971;28;20027;-77
2022/05/24 04:28:14;;;;;;;6.53;3.08;;;;;;;12.41;88.25;98782.34;5117991;28;20080;-77
2022/05/24 04:30:40;;;;;;;6.07;2.35;;;;;;;12.46;88.01;98793.22;5117778;28;20073;-76
2022/05/24 04:33:05;;;;;;;7.50;2.55;;;;;;;12.48;87.71;98799.19;5117366;28;20117;-77
2022/05/24 04:35:30;;;;;;;6.40;2.87;;;;;;;12.51;87.68;98800.56;5120507;28;20028;-78
2022/05/24 04:37:58;;;;;;;8.50;2.40;;;;;;;12.54;87.30;98816.22;5119942;28;20285;-77
2022/05/24 04:43:10;;;;;;;5.53;2.70;;;;;;;12.54;87.40;98808.13;5120910;28;20035;-78
2022/05/24 04:45:36;;;;;;;10.73;2.97;;;;;;;12.61;86.99;98805.22;5120652;28;20390;-77
2022/05/24 04:48:01;;;;;;;;;;;;;;;12.60;87.14;98809.81;5119586;28;20034;-78
2022/05/24 04:50:27;;;;;;;6.63;2.40;;;;;;;12.62;86.73;98813.06;5119035;28;19908;-79
2022/05/24 04:52:52;;;;;;;5.35;2.30;;;;;;;12.62;85.88;98804.97;5119268;28;20517;-78
2022/05/24 04:55:18;;;;;;;5.20;2.30;;;;;;;12.54;86.46;98800.03;5118604;28;20093;-79
2022/05/24 04:57:54;;;;;;;5.53;2.37;;;;;;;12.52;86.88;98791.38;5102881;28;20269;-80
2022/05/24 05:00:54;;;;;;;8.10;2.60;;;;;;;12.44;87.22;98787.25;5121249;28;20262;-79
2022/05/24 05:03:55;;;;;;;6.22;2.03;;;;;;;12.34;87.75;98779.06;5124463;28;20521;-79
2022/05/24 05:06:21;;;;;;;4.30;1.90;;;;;;;12.31;87.74;98782.28;5118579;28;20027;-76
2022/05/24 05:08:47;;;;;;;4.65;2.20;;;;;;;12.33;88.52;98793.66;5117139;28;20034;-78
2022/05/24 05:11:14;;;;;;;7.30;2.50;;;;;;;12.42;87.01;98799.38;5120804;28;20055;-79
2022/05/24 05:13:41;;;;;;;5.80;1.70;;;;;;;12.42;87.30;98807.47;5121245;28;20076;-79
2022/05/24 05:16:21;;;;;;;6.82;2.40;;;;;;;12.37;87.88;98812.81;5120624;28;20027;-78
2022/05/24 05:18:46;;;;;;;4.30;1.80;;;;;;;12.34;87.06;98810.66;5118618;28;20039;-79
2022/05/24 05:21:12;;;;;;;6.00;2.07;;;;;;;12.48;86.74;98819.97;5120222;28;20031;-79
2022/05/24 05:23:37;;;;;;;3.72;1.70;;;;;;;12.49;87.25;98821.59;5116245;28;20054;-78
2022/05/24 05:26:02;;;;;;;6.70;1.90;;;;;;;12.45;87.31;98834.00;5117625;28;20159;-77
2022/05/24 05:28:28;;;;;;;4.70;1.58;;;;;;;12.44;86.51;98843.97;5116355;28;20031;-77
2022/05/24 05:33:39;;;;;;;3.70;2.00;;;;;;;12.26;87.24;98859.72;5115744;28;20372;-78
2022/05/24 05:36:05;;;;;;;4.00;1.50;;;;;;;12.22;87.66;98875.59;5115836;28;20031;-79
2022/05/24 05:38:31;;;;;;;3.65;1.80;;;;;;;12.18;87.61;98883.38;5116861;28;20031;-78
2022/05/24 05:40:58;;;;;;;6.07;1.67;;;;;;;12.21;87.75;98883.97;5116679;28;20027;-77
2022/05/24 05:43:24;;;;;;;6.97;1.45;;;;;;;12.19;88.51;98892.31;5116540;28;20031;-77
2022/05/24 05:45:57;;;;;;;4.75;1.90;;;;;;;12.20;88.39;98899.34;5115807;28;20031;-78
2022/05/24 05:48:23;;;;;;;4.60;1.50;;;;;;;12.12;88.96;98903.31;5115416;28;20034;-77
2022/05/24 05:50:49;;;;;;;4.30;1.80;;;;;;;12.07;89.98;98913.22;5115001;28;20023;-77
2022/05/24 05:53:15;;;;;;;5.68;1.70;;;;;;;11.95;90.30;98920.66;5096492;28;20046;-77
2022/05/24 05:55:41;;;;;;;6.70;2.30;;;;;;;11.86;91.29;98920.25;5114462;28;20050;-78
2022/05/24 05:58:07;;;;;;;4.40;1.77;;;;;;;11.78;91.31;98909.91;5114304;28;20035;-77
2022/05/24 06:00:34;;;;;;;3.35;1.48;;;;;;;11.73;91.38;98912.50;5114560;28;20122;-78
2022/05/24 06:02:59;;;;;;;4.30;1.83;;;;;;;11.59;92.56;98919.31;5114555;28;20080;-76
2022/05/24 06:05:25;;;;;;;6.75;1.60;;;;;;;11.53;91.83;98915.72;5113921;28;20039;-77
2022/05/24 06:07:50;;;;;;;5.13;1.40;;;;;;;11.45;93.03;98929.63;5113972;28;20031;-76
2022/05/24 06:10:15;;;;;;;5.03;1.70;;;;;;;11.43;94.56;98921.78;5113447;28;20058;-77
2022/05/24 06:12:41;;;;;;;5.95;1.92;;;;;;;11.47;94.20;98928.31;5095418;28;20028;-77
2022/05/24 06:15:07;;;;;;;6.13;2.07;;;;;;;11.41;94.73;98923.91;5094970;28;20024;-77
2022/05/24 06:17:33;;;;;;;;;;;;;;;11.36;95.16;98929.22;5113997;28;20027;-77
2022/05/24 06:20:01;;;;;;;4.00;1.80;;;;;;;11.27;95.60;98933.41;5113650;28;20402;-77
2022/05/24 06:22:26;;;;;;;5.72;1.45;;;;;;;11.25;95.41;98940.91;5113350;28;20032;-76
2022/05/24 06:24:51;;;;;;;5.05;2.13;;;;;;;11.29;94.67;98947.44;5095478;28;20042;-77
2022/05/24 06:27:22;;;;;;;6.70;1.80;;;;;;;11.23;95.25;98948.44;5095106;28;20118;-77
2022/05/24 06:29:47;;;;;;;3.80;1.70;;;;;;;11.19;96.40;98951.84;5113580;28;20262;-77
2022/05/24 06:32:12;;;;;;;5.72;1.50;;;;;;;11.12;95.88;98952.00;5115318;28;20034;-77
2022/05/24 06:34:38;;;;;;;4.03;1.53;;;;;;;11.05;95.78;98952.19;5113581;28;20122;-77
2022/05/24 06:37:03;;;;;;;3.20;1.20;;;;;;;11.08;95.73;98956.28;5113097;28;20493;-77
2022/05/24 06:39:29;;;;;;;4.65;1.58;;;;;;;11.05;96.07;98956.75;5113117;28;20100;-77
2022/05/24 06:41:55;;;;;;;6.43;1.55;;;;;;;10.99;96.79;98957.72;5113442;28;20039;-77
2022/05/24 06:44:20;;;;;;;7.07;1.90;;;;;;;10.95;96.54;98970.03;5114778;28;20024;-77
2022/05/24 06:46:46;;;;;;;4.77;1.60;;;;;;;10.98;96.08;98962.28;5114388;28;20036;-76
2022/05/24 06:49:11;;;;;;;7.15;1.48;;;;;;;10.91;96.68;98972.44;5114144;28;20038;-75
2022/05/24 06:51:36;;;;;;;8.15;2.13;;;;;;;10.88;96.25;98978.28;5113571;28;20031;-78
2022/05/24 06:54:02;;;;;;;3.75;1.17;;;;;;;10.83;96.24;98988.16;5114648;28;20054;-77
2022/05/24 06:56:28;;;;;;;5.10;1.05;;;;;;;10.72;96.25;98987.97;5114281;28;20031;-77
2022/05/24 07:02:24;;;;;;;4.50;1.58;;;;;;;10.78;95.95;98986.16;5113598;28;20020;-77
2022/05/24 07:04:22;;;;;;;3.50;1.17;;;;;;;10.71;96.92;98996.28;5114180;28;20402;-77
2022/05/24 07:06:47;;;;;;;9.97;1.70;;;;;;;10.67;96.45;98992.44;5113923;28;20032;-77
2022/05/24 07:09:13;;;;;;;4.97;1.30;;;;;;;10.72;97.16;98985.28;5113477;28;20024;-77
2022/05/24 07:11:38;;;;;;;4.47;1.43;;;;;;;10.79;97.30;98974.34;5095569;28;20024;-77
2022/05/24 07:14:03;;;;;;;3.40;1.40;;;;;;;10.79;96.49;98974.34;5095599;28;20145;-76
2022/05/24 07:16:28;;;;;;;4.77;1.40;;;;;;;10.82;96.54;98963.06;5113739;28;20103;-77
2022/05/24 07:18:57;;;;;;;3.80;1.10;;;;;;;10.86;96.56;98977.72;5114660;28;20106;-77
2022/05/24 07:22:06;;;;;;;6.35;1.23;;;;;;;10.84;96.38;98985.22;5096025;28;20285;-78
2022/05/24 07:24:32;;;;;;;5.00;1.25;;;;;;;10.96;96.22;98983.28;5084472;28;20104;-77
2022/05/24 07:26:57;;;;;;;4.18;1.80;;;;;;;11.07;97.09;98986.97;5114369;28;20474;-79
2022/05/24 07:29:23;;;;;;;3.55;1.25;;;;;;;11.10;95.23;98999.97;5114493;28;20066;-77
2022/05/24 07:31:49;;;;;;;5.93;1.33;;;;;;;11.03;95.41;98999.31;5114363;28;20039;-78
2022/05/24 07:34:14;;;;;;;4.28;1.45;;;;;;;11.18;95.40;99010.34;5114766;28;20469;-77
2022/05/24 07:36:39;;;;;;;4.67;1.40;;;;;;;11.21;94.98;99007.16;5113642;28;20038;-76
2022/05/24 07:39:05;;;;;;;8.00;1.90;;;;;;;11.17;94.85;99007.91;5113770;28;20315;-76
2022/05/24 07:46:58;;;;;;;6.57;2.13;;;;;;;11.40;94.46;99022.06;5117856;28;20141;-77
2022/05/24 07:49:24;;;;;;;3.50;1.17;;;;;;;11.39;93.86;99020.44;5119925;28;20020;-78
2022/05/24 07:51:49;;;;;;;3.20;1.50;;;;;;;11.42;93.56;99024.53;5100290;28;20032;-78
2022/05/24 07:54:15;;;;;;;4.70;1.27;;;;;;;11.60;94.19;99035.06;5118638;28;20072;-77
2022/05/24 07:56:42;;;;;;;5.57;1.50;;;;;;;11.80;91.90;99027.34;5118528;28;20278;-77
2022/05/24 07:59:08;;;;;;;3.63;1.48;;;;;;;11.85;90.86;99031.97;5119241;28;20037;-77
2022/05/24 08:01:34;;;;;;;2.90;1.30;;;;;;;11.91;91.79;99031.00;5118359;28;20530;-77
2022/05/24 08:04:00;;;;;;;7.38;1.50;;;;;;;12.07;91.19;99043.66;5118618;28;20099;-78
2022/05/24 08:06:25;;;;;;;5.93;1.52;;;;;;;12.16;90.19;99044.06;5118876;28;20035;-78
2022/05/24 08:08:50;;;;;;;2.65;1.30;;;;;;;12.18;89.25;99042.72;5118338;28;20080;-77
2022/05/24 08:11:15;;;;;;;3.50;1.37;;;;;;;12.21;88.17;99049.50;5118619;28;20039;-78
2022/05/24 08:13:41;;;;;;;3.03;1.30;;;;;;;12.45;85.96;99042.00;5118027;28;20034;-77
2022/05/24 08:16:07;;;;;;;2.97;1.20;;;;;;;12.52;85.77;99054.25;5118246;28;20024;-78
2022/05/24 08:18:32;;;;;;;;;;;;;;;12.61;85.43;99046.53;5101403;28;20023;-78
2022/05/24 08:20:58;;;;;;;3.10;1.40;;;;;;;12.57;84.84;99041.88;5120797;28;19908;-76
2022/05/24 08:23:25;;;;;;;4.28;1.25;;;;;;;12.62;82.67;99053.56;5116712;28;20634;-76
2022/05/24 08:25:50;;;;;;;6.30;1.17;;;;;;;12.82;83.45;99053.00;5116443;28;20043;-76
2022/05/24 08:28:16;;;;;;;2.63;1.08;;;;;;;12.95;82.20;99051.78;5097782;28;20035;-77
2022/05/24 08:30:42;;;;;;;;;;;;;;;12.95;82.19;99049.88;5116961;28;20038;-76
2022/05/24 08:33:10;;;;;;;5.15;1.58;;;;;;;13.01;81.46;99053.47;5116472;28;19909;-76
2022/05/24 08:35:36;;;;;;;3.53;1.70;;;;;;;13.13;81.35;99048.72;5116929;28;20369;-77
2022/05/24 08:38:04;;;;;;;3.10;1.20;;;;;;;13.22;81.79;99059.94;5116619;28;20034;-76
2022/05/24 08:40:31;;;;;;;3.78;1.30;;;;;;;13.45;82.48;99052.31;5116653;28;20031;-77
2022/05/24 08:43:25;;;;;;;3.03;1.50;;;;;;;13.63;80.32;99053.00;5116197;28;20030;-77
2022/05/24 08:48:54;;;;;;;3.03;1.30;;;;;;;13.90;77.61;99057.31;5115973;28;20038;-77
2022/05/24 08:51:25;;;;;;;3.28;1.33;;;;;;;14.03;74.03;99068.75;5115782;28;20031;-76
2022/05/24 08:53:57;;;;;;;3.20;1.17;;;;;;;13.92;73.71;99069.78;5097586;28;20474;-77
2022/05/24 08:56:30;;;;;;;3.22;1.00;;;;;;;13.81;73.98;99068.84;5096417;28;20039;-77
2022/05/24 08:59:03;;;;;;;4.07;1.50;;;;;;;13.62;75.90;99075.72;5115880;28;20463;-76
2022/05/24 09:01:32;;;;;;;4.55;1.65;;;;;;;13.46;76.57;99081.00;5115903;28;20024;-77
2022/05/24 09:04:10;;;;;;;2.35;1.00;;;;;;;13.28;77.39;99084.06;5116159;28;20047;-76
2022/05/24 09:06:57;;;;;;;3.10;1.33;;;;;;;13.20;78.05;99098.06;5116112;28;20146;-77
2022/05/24 09:09:32;;;;;;;3.95;1.33;;;;;;;13.14;78.74;99099.88;5120460;28;20071;-77
2022/05/24 09:12:22;;;;;;;3.90;1.40;;;;;;;13.09;77.75;99098.97;5120272;28;20060;-77
2022/05/24 09:15:15;;;;;;;2.95;1.08;;;;;;;13.11;77.18;99110.38;5120259;28;20055;-77
2022/05/24 09:18:01;;;;;;;3.33;1.35;;;;;;;13.18;77.35;99111.03;5100718;28;20035;-78
2022/05/24 09:20:39;;;;;;;3.23;1.13;;;;;;;13.25;75.80;99105.44;5116274;28;20040;-79
2022/05/24 09:23:29;;;;;;;4.38;1.20;;;;;;;13.23;76.12;99124.63;5115465;28;20125;-78
2022/05/24 09:26:05;;;;;;;4.13;1.00;;;;;;;13.26;77.27;99120.56;5096814;28;20067;-76
2022/05/24 09:28:48;;;;;;;2.58;0.98;;;;;;;13.42;77.34;99128.63;5114793;28;20026;-76
2022/05/24 09:31:41;;;;;;;2.53;0.90;;;;;;;13.45;77.37;99128.09;5096295;28;20032;-76
2022/05/24 09:34:25;;;;;;;8.50;1.35;;;;;;;13.53;76.33;99132.22;5096329;28;20063;-77
2022/05/24 09:36:58;;;;;;;2.80;0.93;;;;;;;13.62;74.40;99136.09;5114780;28;20110;-76
2022/05/24 09:39:25;;;;;;;2.45;0.90;;;;;;;13.51;75.15;99128.97;5114593;28;20035;-77
2022/05/24 09:41:55;;;;;;;7.75;2.45;;;;;;;13.47;75.05;99133.25;5114265;28;20032;-76
2022/05/24 09:44:20;;;;;;;2.90;1.05;;;;;;;13.52;73.95;99144.94;5115194;28;20119;-76
2022/05/24 09:46:46;;;;;;;3.08;1.10;;;;;;;13.46;76.20;99153.25;5114550;28;20343;-78
2022/05/24 09:49:20;;;;;;;;;;;;;;;13.41;76.70;99153.22;5096869;28;20040;-77
2022/05/24 09:51:46;;;;;;;3.38;1.23;;;;;;;13.53;76.16;99156.59;5096738;28;19981;-77
2022/05/24 09:54:20;;;;;;;2.15;0.80;;;;;;;13.57;75.31;99159.59;5114638;28;20124;-77
2022/05/24 09:57:08;;;;;;;3.55;0.98;;;;;;;13.57;72.80;99160.44;5115751;28;20030;-78
2022/05/24 09:59:37;;;;;;;2.72;0.90;;;;;;;13.53;72.80;99167.41;5117025;28;20062;-78
2022/05/24 10:02:22;;;;;;;2.58;1.10;;;;;;;13.49;71.96;99171.69;5117544;28;20088;-80
2022/05/24 10:04:47;;;;;;;2.95;0.77;;;;;;;13.57;71.24;99162.31;5098881;28;20030;-78
2022/05/24 10:07:26;;;;;;;2.63;1.17;;;;;;;13.66;70.38;99168.88;5116844;28;20028;-78
2022/05/24 10:09:51;;;;;;;3.10;0.70;;;;;;;13.94;70.28;99163.22;5115405;28;20046;-79
2022/05/24 10:12:30;;;;;;;1.93;0.67;;;;;;;14.16;69.56;99163.94;5116024;28;20028;-77
2022/05/24 10:15:23;;;;;;;2.85;0.80;;;;;;;14.43;69.00;99157.66;5116087;28;20084;-77
2022/05/24 10:18:06;;;;;;;1.83;0.73;;;;;;;14.67;67.98;99169.75;5116682;28;20046;-78
2022/05/24 10:20:35;;;;;;;1.50;0.60;;;;;;;14.86;66.65;99164.72;5116960;28;20031;-78
2022/05/24 10:23:16;;;;;;;2.70;1.02;;;;;;;14.91;65.96;99165.53;5118133;28;20024;-79
2022/05/24 10:25:41;;;;;;;2.63;0.80;;;;;;;15.14;65.63;99168.91;5128185;28;20069;-79
2022/05/24 10:28:10;;;;;;;2.27;0.97;;;;;;;15.26;66.02;99166.78;5125790;28;20027;-79
2022/05/24 10:31:03;;;;;;;1.50;0.70;;;;;;;15.32;65.11;99175.75;5122065;28;20265;-79
2022/05/24 10:39:53;;;;;;;1.45;0.70;;;;;;;15.29;62.21;99168.97;5119751;28;20040;-79
2022/05/24 10:42:45;;;;;;;1.45;0.60;;;;;;;14.93;63.63;99176.94;5118223;28;20031;-79
2022/05/24 10:45:17;;;;;;;1.77;0.75;;;;;;;14.66;65.80;99176.25;5117340;28;20042;-79
2022/05/24 10:47:50;;;;;;;3.10;1.02;;;;;;;14.27;68.40;99188.41;5102498;28;20047;-79
2022/05/24 10:50:34;;;;;;;3.17;0.80;;;;;;;14.50;68.59;99183.47;5121230;28;20040;-80
2022/05/24 10:53:11;;;;;;;1.60;0.80;;;;;;;14.71;67.86;99180.88;5125232;28;20027;-79
2022/05/24 10:55:51;;;;;;;3.38;0.88;;;;;;;15.05;66.73;99174.00;5127972;28;20027;-79
2022/05/24 10:58:17;;;;;;;2.17;0.85;;;;;;;15.37;64.40;99179.31;5129418;28;20031;-80
2022/05/24 11:00:49;;;;;;;2.47;1.02;;;;;;;15.62;62.30;99167.72;5126936;28;20031;-80
2022/05/24 11:03:15;;;;;;;2.53;0.80;;;;;;;15.81;62.62;99157.16;5116882;28;20032;-79
2022/05/24 11:05:43;;;;;;;;;;;;;;;15.83;59.98;99171.28;5115893;28;20028;-79
2022/05/24 11:08:46;;;;;;;1.63;0.60;;;;;;;15.82;59.15;99175.09;5115056;28;19908;-79
2022/05/24 11:11:26;;;;;;;1.70;0.70;;;;;;;15.86;58.98;99174.28;5116584;28;20035;-80
2022/05/24 11:14:13;;;;;;;3.20;0.80;;;;;;;15.80;58.59;99177.25;5117931;28;20530;-80
2022/05/24 11:16:43;;;;;;;1.20;0.63;;;;;;;15.81;56.67;99187.84;5077476;28;20063;-80
2022/05/24 11:19:15;;;;;;;1.15;0.52;;;;;;;15.81;57.38;99187.84;5100060;28;20028;-80
2022/05/24 11:21:49;;;;;;;2.05;0.60;;;;;;;15.82;57.65;99180.53;5103408;28;20055;-80
2022/05/24 11:24:25;;;;;;;1.90;0.60;;;;;;;15.89;57.19;99184.63;5123558;28;20039;-81
2022/05/24 11:26:55;;;;;;;2.55;0.70;;;;;;;16.04;56.73;99191.97;5120249;28;20027;-78
2022/05/24 11:29:28;;;;;;;0.90;0.45;;;;;;;16.22;56.83;99186.00;5120746;28;20027;-79
2022/05/24 11:32:03;;;;;;;2.38;0.82;;;;;;;16.16;56.90;99195.22;5119533;28;20024;-80
2022/05/24 11:34:35;;;;;;;2.97;1.08;;;;;;;16.20;56.80;99188.19;5100684;28;20392;-79
2022/05/24 11:37:02;;;;;;;2.35;0.80;;;;;;;16.24;56.70;99191.16;5118197;28;20205;-79
2022/05/24 11:39:35;;;;;;;1.98;0.88;;;;;;;16.26;56.55;99195.25;5118606;28;20053;-80
2022/05/24 11:42:24;;;;;;;2.08;0.80;;;;;;;16.27;57.66;99202.31;5118654;28;20050;-80
2022/05/24 11:44:52;;;;;;;2.50;0.80;;;;;;;16.48;57.03;99196.88;5118928;28;20043;-80
2022/05/24 11:47:37;;;;;;;1.65;0.70;;;;;;;16.65;56.61;99195.53;5118999;28;20099;-81
2022/05/24 11:50:07;;;;;;;1.35;0.60;;;;;;;16.77;55.17;99197.13;5121358;28;20103;-80
2022/05/24 11:53:03;;;;;;;2.63;0.73;;;;;;;16.77;54.76;99203.38;5122845;28;20081;-79
2022/05/24 11:55:46;;;;;;;1.50;0.70;;;;;;;17.05;53.52;99210.13;5120419;28;20054;-79
2022/05/24 11:58:32;;;;;;;1.20;0.60;;;;;;;17.17;53.23;99215.28;5121890;28;20028;-80
2022/05/24 12:01:01;;;;;;;1.95;0.80;;;;;;;17.05;53.23;99223.72;5121508;28;20024;-80
2022/05/24 12:09:53;;;;;;;1.15;0.60;;;;;;;17.47;52.50;99226.03;5058102;28;20521;-80
2022/05/24 12:12:27;;;;;;;1.88;0.80;;;;;;;17.51;50.69;99224.38;5056854;28;20036;-81
2022/05/24 12:15:16;;;;;;;1.55;0.70;;;;;;;17.42;50.51;99227.94;5099025;28;20482;-80
2022/05/24 12:17:43;;;;;;;1.95;1.10;;;;;;;17.06;51.25;99227.25;5069147;28;20109;-81
2022/05/24 12:20:33;;;;;;;3.22;0.77;;;;;;;16.70;52.94;99231.94;5100981;28;20032;-80
2022/05/24 12:23:08;;;;;;;2.42;0.80;;;;;;;16.51;53.51;99232.47;5118948;28;20031;-80
2022/05/24 12:25:59;;;;;;;3.78;0.80;;;;;;;16.32;53.61;99229.47;5118501;28;20115;-81
2022/05/24 12:28:40;;;;;;;1.80;0.70;;;;;;;16.21;53.97;99235.19;5119432;28;20042;-81
2022/05/24 12:31:17;;;;;;;1.45;0.60;;;;;;;16.23;54.19;99243.91;5099315;28;20031;-80